sensor_id;sensor_type;location;lat;lon;timestamp;temperature;humidity
60868;DHT22;46702;48.370;10.794;2023-04-01T00:01:15;7.80;99.90
60868;DHT22;46702;48.370;10.794;2023-04-01T00:03:42;7.80;99.90
60868;DHT22;46702;48.370;10.794;2023-04-01T00:06:11;7.90;99.90
60868;DHT22;46702;48.370;10.794;2023-04-01T00:08:38;7.90;99.90
60868;DHT22;46702;48.370;10.794;2023-04-01T00:11:04;7.90;99.90
60868;DHT22;46702;48.370;10.794;2023-04-01T00:13:29;7.90;99.90
60868;DHT22;46702;48.370;10.794;2023-04-01T00:15:55;7.90;99.90
60868;DHT22;46702;48.370;10.794;2023-04-01T00:18:21;7.80;99.90
60868;DHT22;46702;48.370;10.794;2023-04-01T00:20:49;7.80;99.90
60868;DHT22;46702;48.370;10.794;2023-04-01T00:23:16;7.90;99.90
60868;DHT22;46702;48.370;10.794;2023-04-01T00:25:42;7.90;99.90
60868;DHT22;46702;48.370;10.794;2023-04-01T00:28:09;7.90;99.90
60868;DHT22;46702;48.370;10.794;2023-04-01T00:30:36;7.90;99.90
60868;DHT22;46702;48.370;10.794;2023-04-01T00:33:02;7.80;99.90
60868;DHT22;46702;48.370;10.794;2023-04-01T00:35:28;7.90;99.90
60868;DHT22;46702;48.370;10.794;2023-04-01T00:37:53;7.90;99.90
60868;DHT22;46702;48.370;10.794;2023-04-01T00:40:32;7.90;99.90
60868;DHT22;46702;48.370;10.794;2023-04-01T00:43:00;7.90;99.90
60868;DHT22;46702;48.370;10.794;2023-04-01T00:45:38;7.80;99.90
60868;DHT22;46702;48.370;10.794;2023-04-01T00:48:23;7.80;99.90
60868;DHT22;46702;48.370;10.794;2023-04-01T00:51:11;7.80;99.90
60868;DHT22;46702;48.370;10.794;2023-04-01T00:53:43;7.80;99.90
60868;DHT22;46702;48.370;10.794;2023-04-01T00:56:27;7.80;99.90
60868;DHT22;46702;48.370;10.794;2023-04-01T00:59:00;7.80;99.90
60868;DHT22;46702;48.370;10.794;2023-04-01T01:01:28;7.80;99.90
60868;DHT22;46702;48.370;10.794;2023-04-01T01:03:55;7.90;99.90
60868;DHT22;46702;48.370;10.794;2023-04-01T01:12:37;8.00;99.90
60868;DHT22;46702;48.370;10.794;2023-04-01T01:18:18;7.90;99.90
60868;DHT22;46702;48.370;10.794;2023-04-01T01:34:39;7.70;99.90
60868;DHT22;46702;48.370;10.794;2023-04-01T01:37:10;7.80;99.90
60868;DHT22;46702;48.370;10.794;2023-04-01T01:39:37;7.80;99.90
60868;DHT22;46702;48.370;10.794;2023-04-01T01:42:06;7.70;99.90
60868;DHT22;46702;48.370;10.794;2023-04-01T01:44:34;7.70;99.90
60868;DHT22;46702;48.370;10.794;2023-04-01T01:47:01;7.70;99.90
60868;DHT22;46702;48.370;10.794;2023-04-01T01:49:28;7.60;99.90
60868;DHT22;46702;48.370;10.794;2023-04-01T01:51:56;7.60;99.90
60868;DHT22;46702;48.370;10.794;2023-04-01T01:54:21;7.50;99.90
60868;DHT22;46702;48.370;10.794;2023-04-01T01:56:50;7.50;99.90
60868;DHT22;46702;48.370;10.794;2023-04-01T01:59:19;7.50;99.90
60868;DHT22;46702;48.370;10.794;2023-04-01T02:01:50;7.40;99.90
60868;DHT22;46702;48.370;10.794;2023-04-01T02:04:18;7.40;99.90
60868;DHT22;46702;48.370;10.794;2023-04-01T02:06:56;7.40;99.90
60868;DHT22;46702;48.370;10.794;2023-04-01T02:09:23;7.40;99.90
60868;DHT22;46702;48.370;10.794;2023-04-01T02:14:19;7.40;99.90
60868;DHT22;46702;48.370;10.794;2023-04-01T02:17:04;7.40;99.90
60868;DHT22;46702;48.370;10.794;2023-04-01T02:19:43;7.30;99.90
60868;DHT22;46702;48.370;10.794;2023-04-01T02:22:14;7.30;99.90
60868;DHT22;46702;48.370;10.794;2023-04-01T02:24:42;7.30;99.90
60868;DHT22;46702;48.370;10.794;2023-04-01T02:27:09;7.30;99.90
60868;DHT22;46702;48.370;10.794;2023-04-01T02:29:36;7.30;99.90
60868;DHT22;46702;48.370;10.794;2023-04-01T02:32:02;7.20;99.90
60868;DHT22;46702;48.370;10.794;2023-04-01T02:34:29;7.20;99.90
60868;DHT22;46702;48.370;10.794;2023-04-01T02:36:55;7.10;99.90
60868;DHT22;46702;48.370;10.794;2023-04-01T02:39:22;7.10;99.90
60868;DHT22;46702;48.370;10.794;2023-04-01T02:41:48;7.00;99.90
60868;DHT22;46702;48.370;10.794;2023-04-01T02:44:14;7.00;99.90
60868;DHT22;46702;48.370;10.794;2023-04-01T02:46:40;7.00;99.90
60868;DHT22;46702;48.370;10.794;2023-04-01T02:49:06;7.00;99.90
60868;DHT22;46702;48.370;10.794;2023-04-01T02:51:32;7.00;99.90
60868;DHT22;46702;48.370;10.794;2023-04-01T02:53:58;6.90;99.90
60868;DHT22;46702;48.370;10.794;2023-04-01T02:56:23;6.90;99.90
60868;DHT22;46702;48.370;10.794;2023-04-01T02:58:49;6.80;99.90
60868;DHT22;46702;48.370;10.794;2023-04-01T03:01:16;6.80;99.90
60868;DHT22;46702;48.370;10.794;2023-04-01T03:03:41;6.80;99.90
60868;DHT22;46702;48.370;10.794;2023-04-01T03:06:09;6.70;99.90
60868;DHT22;46702;48.370;10.794;2023-04-01T03:08:35;6.80;99.90
60868;DHT22;46702;48.370;10.794;2023-04-01T03:11:01;6.80;99.90
60868;DHT22;46702;48.370;10.794;2023-04-01T03:13:27;6.80;99.90
60868;DHT22;46702;48.370;10.794;2023-04-01T03:15:53;6.80;99.90
60868;DHT22;46702;48.370;10.794;2023-04-01T03:18:19;6.80;99.90
60868;DHT22;46702;48.370;10.794;2023-04-01T03:20:45;6.90;99.90
60868;DHT22;46702;48.370;10.794;2023-04-01T03:23:10;6.90;99.90
60868;DHT22;46702;48.370;10.794;2023-04-01T03:25:36;6.90;99.90
60868;DHT22;46702;48.370;10.794;2023-04-01T03:28:03;7.00;99.90
60868;DHT22;46702;48.370;10.794;2023-04-01T03:30:28;7.00;99.90
60868;DHT22;46702;48.370;10.794;2023-04-01T03:32:57;7.00;99.90
60868;DHT22;46702;48.370;10.794;2023-04-01T03:35:23;7.00;99.90
60868;DHT22;46702;48.370;10.794;2023-04-01T03:37:50;7.00;99.90
60868;DHT22;46702;48.370;10.794;2023-04-01T03:40:16;7.00;99.90
60868;DHT22;46702;48.370;10.794;2023-04-01T03:42:42;7.00;99.90
60868;DHT22;46702;48.370;10.794;2023-04-01T03:45:07;7.10;99.90
60868;DHT22;46702;48.370;10.794;2023-04-01T03:47:34;7.10;99.90
60868;DHT22;46702;48.370;10.794;2023-04-01T03:50:00;7.00;99.90
60868;DHT22;46702;48.370;10.794;2023-04-01T03:52:26;7.00;99.90
60868;DHT22;46702;48.370;10.794;2023-04-01T03:54:51;7.00;99.90
60868;DHT22;46702;48.370;10.794;2023-04-01T03:57:17;7.00;99.90
60868;DHT22;46702;48.370;10.794;2023-04-01T03:59:42;7.10;99.90
60868;DHT22;46702;48.370;10.794;2023-04-01T04:02:08;7.00;99.90
60868;DHT22;46702;48.370;10.794;2023-04-01T04:04:34;7.10;99.90
60868;DHT22;46702;48.370;10.794;2023-04-01T04:06:59;7.10;99.90
60868;DHT22;46702;48.370;10.794;2023-04-01T04:09:25;7.00;99.90
60868;DHT22;46702;48.370;10.794;2023-04-01T04:11:51;7.10;99.90
60868;DHT22;46702;48.370;10.794;2023-04-01T04:14:16;7.10;99.90
60868;DHT22;46702;48.370;10.794;2023-04-01T04:16:42;7.10;99.90
60868;DHT22;46702;48.370;10.794;2023-04-01T04:19:08;7.00;99.90
60868;DHT22;46702;48.370;10.794;2023-04-01T04:21:33;7.10;99.90
60868;DHT22;46702;48.370;10.794;2023-04-01T04:24:00;7.00;99.90
60868;DHT22;46702;48.370;10.794;2023-04-01T04:26:26;7.00;99.90
60868;DHT22;46702;48.370;10.794;2023-04-01T04:28:54;7.00;99.90
60868;DHT22;46702;48.370;10.794;2023-04-01T04:31:22;6.90;99.90
60868;DHT22;46702;48.370;10.794;2023-04-01T04:33:48;6.90;99.90
60868;DHT22;46702;48.370;10.794;2023-04-01T04:36:14;6.90;99.90
60868;DHT22;46702;48.370;10.794;2023-04-01T04:38:39;6.90;99.90
60868;DHT22;46702;48.370;10.794;2023-04-01T04:41:10;6.90;99.90
60868;DHT22;46702;48.370;10.794;2023-04-01T04:43:37;6.90;99.90
60868;DHT22;46702;48.370;10.794;2023-04-01T04:46:10;6.90;99.90
60868;DHT22;46702;48.370;10.794;2023-04-01T04:48:36;6.90;99.90
60868;DHT22;46702;48.370;10.794;2023-04-01T04:51:02;7.00;99.90
60868;DHT22;46702;48.370;10.794;2023-04-01T04:53:28;7.00;99.90
60868;DHT22;46702;48.370;10.794;2023-04-01T04:55:55;7.00;99.90
60868;DHT22;46702;48.370;10.794;2023-04-01T04:58:21;7.00;99.90
60868;DHT22;46702;48.370;10.794;2023-04-01T05:00:46;7.00;99.90
60868;DHT22;46702;48.370;10.794;2023-04-01T05:03:12;7.00;99.90
60868;DHT22;46702;48.370;10.794;2023-04-01T05:05:39;7.10;99.90
60868;DHT22;46702;48.370;10.794;2023-04-01T05:08:05;7.10;99.90
60868;DHT22;46702;48.370;10.794;2023-04-01T05:10:30;7.10;99.90
60868;DHT22;46702;48.370;10.794;2023-04-01T05:12:57;7.10;99.90
60868;DHT22;46702;48.370;10.794;2023-04-01T05:15:23;7.10;99.90
60868;DHT22;46702;48.370;10.794;2023-04-01T05:17:49;7.10;99.90
60868;DHT22;46702;48.370;10.794;2023-04-01T05:20:16;7.20;99.90
60868;DHT22;46702;48.370;10.794;2023-04-01T05:22:42;7.20;99.90
60868;DHT22;46702;48.370;10.794;2023-04-01T05:25:08;7.20;99.90
60868;DHT22;46702;48.370;10.794;2023-04-01T05:27:34;7.10;99.90
60868;DHT22;46702;48.370;10.794;2023-04-01T05:30:00;7.20;99.90
60868;DHT22;46702;48.370;10.794;2023-04-01T05:32:25;7.20;99.90
60868;DHT22;46702;48.370;10.794;2023-04-01T05:34:52;7.10;99.90
60868;DHT22;46702;48.370;10.794;2023-04-01T05:37:17;7.20;99.90
60868;DHT22;46702;48.370;10.794;2023-04-01T05:39:43;7.20;99.90
60868;DHT22;46702;48.370;10.794;2023-04-01T05:42:09;7.10;99.90
60868;DHT22;46702;48.370;10.794;2023-04-01T05:44:35;7.10;99.90
60868;DHT22;46702;48.370;10.794;2023-04-01T05:47:02;7.10;99.90
60868;DHT22;46702;48.370;10.794;2023-04-01T05:49:28;7.20;99.90
60868;DHT22;46702;48.370;10.794;2023-04-01T05:51:53;7.10;99.90
60868;DHT22;46702;48.370;10.794;2023-04-01T05:54:19;7.10;99.90
60868;DHT22;46702;48.370;10.794;2023-04-01T05:56:45;7.10;99.90
60868;DHT22;46702;48.370;10.794;2023-04-01T05:59:12;7.20;99.90
60868;DHT22;46702;48.370;10.794;2023-04-01T06:01:38;7.20;99.90
60868;DHT22;46702;48.370;10.794;2023-04-01T06:04:03;7.20;99.90
60868;DHT22;46702;48.370;10.794;2023-04-01T06:06:30;7.30;99.90
60868;DHT22;46702;48.370;10.794;2023-04-01T06:09:19;7.30;99.90
60868;DHT22;46702;48.370;10.794;2023-04-01T06:22:46;7.60;99.90
60868;DHT22;46702;48.370;10.794;2023-04-01T06:25:18;7.60;99.90
60868;DHT22;46702;48.370;10.794;2023-04-01T06:27:51;7.70;99.90
60868;DHT22;46702;48.370;10.794;2023-04-01T06:30:50;7.80;99.90
60868;DHT22;46702;48.370;10.794;2023-04-01T06:46:57;8.10;99.90
60868;DHT22;46702;48.370;10.794;2023-04-01T06:54:55;8.10;99.90
60868;DHT22;46702;48.370;10.794;2023-04-01T06:57:42;8.20;99.90
60868;DHT22;46702;48.370;10.794;2023-04-01T07:02:54;8.20;99.90
60868;DHT22;46702;48.370;10.794;2023-04-01T07:05:24;8.30;99.90
60868;DHT22;46702;48.370;10.794;2023-04-01T07:07:53;8.40;99.90
60868;DHT22;46702;48.370;10.794;2023-04-01T07:13:29;8.40;99.90
60868;DHT22;46702;48.370;10.794;2023-04-01T07:16:23;8.40;99.90
60868;DHT22;46702;48.370;10.794;2023-04-01T07:18:54;8.50;99.90
60868;DHT22;46702;48.370;10.794;2023-04-01T07:24:05;8.70;99.90
60868;DHT22;46702;48.370;10.794;2023-04-01T07:26:32;8.80;99.90
60868;DHT22;46702;48.370;10.794;2023-04-01T07:28:57;8.80;99.90
60868;DHT22;46702;48.370;10.794;2023-04-01T07:36:54;8.60;99.90
60868;DHT22;46702;48.370;10.794;2023-04-01T07:50:32;8.70;99.90
60868;DHT22;46702;48.370;10.794;2023-04-01T07:55:57;8.60;99.90
60868;DHT22;46702;48.370;10.794;2023-04-01T08:06:33;8.80;99.90
60868;DHT22;46702;48.370;10.794;2023-04-01T08:09:25;8.80;99.90
60868;DHT22;46702;48.370;10.794;2023-04-01T08:17:36;9.00;99.90
60868;DHT22;46702;48.370;10.794;2023-04-01T08:23:21;9.20;99.90
60868;DHT22;46702;48.370;10.794;2023-04-01T08:31:15;9.60;99.90
60868;DHT22;46702;48.370;10.794;2023-04-01T08:33:42;9.60;99.90
60868;DHT22;46702;48.370;10.794;2023-04-01T08:36:14;9.70;99.90
60868;DHT22;46702;48.370;10.794;2023-04-01T08:38:53;9.70;99.90
60868;DHT22;46702;48.370;10.794;2023-04-01T08:47:36;9.70;99.90
60868;DHT22;46702;48.370;10.794;2023-04-01T08:50:37;9.70;99.90
60868;DHT22;46702;48.370;10.794;2023-04-01T09:06:33;9.90;99.90
60868;DHT22;46702;48.370;10.794;2023-04-01T09:12:30;9.90;99.90
60868;DHT22;46702;48.370;10.794;2023-04-01T09:30:02;10.20;99.90
60868;DHT22;46702;48.370;10.794;2023-04-01T09:38:19;10.20;99.90
60868;DHT22;46702;48.370;10.794;2023-04-01T09:46:26;10.20;99.90
60868;DHT22;46702;48.370;10.794;2023-04-01T09:49:06;10.20;99.90
60868;DHT22;46702;48.370;10.794;2023-04-01T09:51:49;10.10;99.90
60868;DHT22;46702;48.370;10.794;2023-04-01T10:00:20;10.10;99.90
60868;DHT22;46702;48.370;10.794;2023-04-01T10:25:34;9.30;99.90
60868;DHT22;46702;48.370;10.794;2023-04-01T10:45:04;9.00;99.90
60868;DHT22;46702;48.370;10.794;2023-04-01T10:55:48;8.70;99.90
60868;DHT22;46702;48.370;10.794;2023-04-01T11:01:16;8.70;99.90
60868;DHT22;46702;48.370;10.794;2023-04-01T11:14:49;8.60;99.90
60868;DHT22;46702;48.370;10.794;2023-04-01T11:28:40;8.60;99.90
60868;DHT22;46702;48.370;10.794;2023-04-01T11:40:02;8.60;99.90
60868;DHT22;46702;48.370;10.794;2023-04-01T11:42:51;8.60;99.90
60868;DHT22;46702;48.370;10.794;2023-04-01T11:45:43;8.70;99.90
60868;DHT22;46702;48.370;10.794;2023-04-01T11:53:57;8.80;99.90
60868;DHT22;46702;48.370;10.794;2023-04-01T11:57:13;8.80;99.90
60868;DHT22;46702;48.370;10.794;2023-04-01T11:59:45;8.80;99.90
60868;DHT22;46702;48.370;10.794;2023-04-01T12:10:49;8.80;99.90
60868;DHT22;46702;48.370;10.794;2023-04-01T12:13:40;8.80;99.90
60868;DHT22;46702;48.370;10.794;2023-04-01T12:18:59;8.80;99.90
60868;DHT22;46702;48.370;10.794;2023-04-01T12:21:37;8.80;99.90
60868;DHT22;46702;48.370;10.794;2023-04-01T12:30:38;8.80;99.90
60868;DHT22;46702;48.370;10.794;2023-04-01T12:41:12;8.70;99.90
60868;DHT22;46702;48.370;10.794;2023-04-01T12:43:52;8.80;99.90
60868;DHT22;46702;48.370;10.794;2023-04-01T12:57:16;9.00;99.90
60868;DHT22;46702;48.370;10.794;2023-04-01T12:59:54;9.00;99.90
60868;DHT22;46702;48.370;10.794;2023-04-01T13:13:41;9.20;99.90
60868;DHT22;46702;48.370;10.794;2023-04-01T13:16:20;9.20;99.90
60868;DHT22;46702;48.370;10.794;2023-04-01T13:21:23;9.20;99.90
60868;DHT22;46702;48.370;10.794;2023-04-01T13:29:32;9.30;99.90
60868;DHT22;46702;48.370;10.794;2023-04-01T13:32:19;9.30;99.90
60868;DHT22;46702;48.370;10.794;2023-04-01T14:05:54;9.70;99.90
60868;DHT22;46702;48.370;10.794;2023-04-01T14:11:45;9.70;99.90
60868;DHT22;46702;48.370;10.794;2023-04-01T14:14:36;9.60;99.90
60868;DHT22;46702;48.370;10.794;2023-04-01T14:17:35;9.70;99.90
60868;DHT22;46702;48.370;10.794;2023-04-01T14:33:58;9.50;99.90
60868;DHT22;46702;48.370;10.794;2023-04-01T14:36:43;9.40;99.90
60868;DHT22;46702;48.370;10.794;2023-04-01T14:45:34;9.60;99.90
60868;DHT22;46702;48.370;10.794;2023-04-01T14:48:17;9.60;99.90
60868;DHT22;46702;48.370;10.794;2023-04-01T14:50:49;9.70;99.90
60868;DHT22;46702;48.370;10.794;2023-04-01T14:55:52;9.90;99.90
60868;DHT22;46702;48.370;10.794;2023-04-01T14:58:20;10.10;99.90
60868;DHT22;46702;48.370;10.794;2023-04-01T15:01:06;10.20;99.90
60868;DHT22;46702;48.370;10.794;2023-04-01T15:21:18;9.90;99.90
60868;DHT22;46702;48.370;10.794;2023-04-01T15:23:56;9.90;99.90
60868;DHT22;46702;48.370;10.794;2023-04-01T15:26:42;10.00;99.90
60868;DHT22;46702;48.370;10.794;2023-04-01T15:29:17;10.00;99.90
60868;DHT22;46702;48.370;10.794;2023-04-01T15:34:28;9.90;99.90
60868;DHT22;46702;48.370;10.794;2023-04-01T15:37:16;9.90;99.90
60868;DHT22;46702;48.370;10.794;2023-04-01T15:45:26;9.90;99.90
60868;DHT22;46702;48.370;10.794;2023-04-01T15:55:56;9.90;99.90
60868;DHT22;46702;48.370;10.794;2023-04-01T16:04:31;9.90;99.90
60868;DHT22;46702;48.370;10.794;2023-04-01T16:07:30;9.80;99.90
60868;DHT22;46702;48.370;10.794;2023-04-01T16:10:32;9.80;99.90
60868;DHT22;46702;48.370;10.794;2023-04-01T16:16:23;9.80;99.90
60868;DHT22;46702;48.370;10.794;2023-04-01T16:19:01;9.80;99.90
60868;DHT22;46702;48.370;10.794;2023-04-01T16:21:58;9.70;99.90
60868;DHT22;46702;48.370;10.794;2023-04-01T16:27:37;9.60;99.90
60868;DHT22;46702;48.370;10.794;2023-04-01T16:33:24;9.60;99.90
60868;DHT22;46702;48.370;10.794;2023-04-01T16:38:43;9.60;99.90
60868;DHT22;46702;48.370;10.794;2023-04-01T16:41:24;9.60;99.90
60868;DHT22;46702;48.370;10.794;2023-04-01T16:43:56;9.60;99.90
60868;DHT22;46702;48.370;10.794;2023-04-01T16:49:03;9.60;99.90
60868;DHT22;46702;48.370;10.794;2023-04-01T17:09:14;9.30;99.90
60868;DHT22;46702;48.370;10.794;2023-04-01T17:11:54;9.30;99.90
60868;DHT22;46702;48.370;10.794;2023-04-01T17:28:15;9.00;99.90
60868;DHT22;46702;48.370;10.794;2023-04-01T17:31:18;9.00;99.90
60868;DHT22;46702;48.370;10.794;2023-04-01T17:34:12;9.00;99.90
60868;DHT22;46702;48.370;10.794;2023-04-01T17:39:51;9.00;99.90
60868;DHT22;46702;48.370;10.794;2023-04-01T17:45:33;8.90;99.90
60868;DHT22;46702;48.370;10.794;2023-04-01T17:48:15;8.90;99.90
60868;DHT22;46702;48.370;10.794;2023-04-01T17:54:05;8.90;99.90
60868;DHT22;46702;48.370;10.794;2023-04-01T17:56:44;8.80;99.90
60868;DHT22;46702;48.370;10.794;2023-04-01T17:59:16;8.80;99.90
60868;DHT22;46702;48.370;10.794;2023-04-01T18:02:28;8.70;99.90
60868;DHT22;46702;48.370;10.794;2023-04-01T18:05:21;8.70;99.90
60868;DHT22;46702;48.370;10.794;2023-04-01T18:13:35;8.60;99.90
60868;DHT22;46702;48.370;10.794;2023-04-01T18:19:03;8.50;99.90
60868;DHT22;46702;48.370;10.794;2023-04-01T18:26:44;8.50;99.90
60868;DHT22;46702;48.370;10.794;2023-04-01T18:29:27;8.50;99.90
60868;DHT22;46702;48.370;10.794;2023-04-01T18:37:36;8.50;99.90
60868;DHT22;46702;48.370;10.794;2023-04-01T18:40:28;8.50;99.90
60868;DHT22;46702;48.370;10.794;2023-04-01T18:43:18;8.50;99.90
60868;DHT22;46702;48.370;10.794;2023-04-01T18:45:50;8.50;99.90
60868;DHT22;46702;48.370;10.794;2023-04-01T18:48:43;8.50;99.90
60868;DHT22;46702;48.370;10.794;2023-04-01T18:51:51;8.50;99.90
60868;DHT22;46702;48.370;10.794;2023-04-01T18:57:18;8.50;99.90
60868;DHT22;46702;48.370;10.794;2023-04-01T19:02:43;8.50;99.90
60868;DHT22;46702;48.370;10.794;2023-04-01T19:05:20;8.60;99.90
60868;DHT22;46702;48.370;10.794;2023-04-01T19:07:49;8.50;99.90
60868;DHT22;46702;48.370;10.794;2023-04-01T19:13:19;8.50;99.90
60868;DHT22;46702;48.370;10.794;2023-04-01T19:16:10;8.50;99.90
60868;DHT22;46702;48.370;10.794;2023-04-01T19:21:21;8.50;99.90
60868;DHT22;46702;48.370;10.794;2023-04-01T19:24:12;8.50;99.90
60868;DHT22;46702;48.370;10.794;2023-04-01T19:26:48;8.50;99.90
60868;DHT22;46702;48.370;10.794;2023-04-01T19:32:14;8.50;99.90
60868;DHT22;46702;48.370;10.794;2023-04-01T19:37:24;8.50;99.90
60868;DHT22;46702;48.370;10.794;2023-04-01T19:42:54;8.40;99.90
60868;DHT22;46702;48.370;10.794;2023-04-01T19:53:40;8.40;99.90
60868;DHT22;46702;48.370;10.794;2023-04-01T19:56:16;8.40;99.90
60868;DHT22;46702;48.370;10.794;2023-04-01T20:01:52;8.40;99.90
60868;DHT22;46702;48.370;10.794;2023-04-01T20:04:32;8.30;99.90
60868;DHT22;46702;48.370;10.794;2023-04-01T20:10:07;8.30;99.90
60868;DHT22;46702;48.370;10.794;2023-04-01T20:15:32;8.30;99.90
60868;DHT22;46702;48.370;10.794;2023-04-01T20:18:01;8.30;99.90
60868;DHT22;46702;48.370;10.794;2023-04-01T20:20:29;8.20;99.90
60868;DHT22;46702;48.370;10.794;2023-04-01T20:23:32;8.20;99.90
60868;DHT22;46702;48.370;10.794;2023-04-01T20:26:06;8.20;99.90
60868;DHT22;46702;48.370;10.794;2023-04-01T20:28:47;8.20;99.90
60868;DHT22;46702;48.370;10.794;2023-04-01T20:31:36;8.10;99.90
60868;DHT22;46702;48.370;10.794;2023-04-01T20:40:03;8.00;99.90
60868;DHT22;46702;48.370;10.794;2023-04-01T20:43:03;8.00;99.90
60868;DHT22;46702;48.370;10.794;2023-04-01T20:45:51;8.00;99.90
60868;DHT22;46702;48.370;10.794;2023-04-01T20:51:31;7.90;99.90
60868;DHT22;46702;48.370;10.794;2023-04-01T20:56:40;7.90;99.90
60868;DHT22;46702;48.370;10.794;2023-04-01T20:59:23;7.80;99.90
60868;DHT22;46702;48.370;10.794;2023-04-01T21:09:55;7.80;99.90
60868;DHT22;46702;48.370;10.794;2023-04-01T21:12:32;7.80;99.90
60868;DHT22;46702;48.370;10.794;2023-04-01T21:26:08;7.90;99.90
60868;DHT22;46702;48.370;10.794;2023-04-01T21:34:01;7.80;99.90
60868;DHT22;46702;48.370;10.794;2023-04-01T21:39:22;7.70;99.90
60868;DHT22;46702;48.370;10.794;2023-04-01T21:42:07;7.70;99.90
60868;DHT22;46702;48.370;10.794;2023-04-01T21:47:56;7.50;99.90
60868;DHT22;46702;48.370;10.794;2023-04-01T21:56:37;7.40;99.90
60868;DHT22;46702;48.370;10.794;2023-04-01T22:01:45;7.30;99.90
60868;DHT22;46702;48.370;10.794;2023-04-01T22:07:16;7.20;99.90
60868;DHT22;46702;48.370;10.794;2023-04-01T22:10:20;7.20;99.90
60868;DHT22;46702;48.370;10.794;2023-04-01T22:27:03;7.00;99.90
60868;DHT22;46702;48.370;10.794;2023-04-01T22:29:38;7.00;99.90
60868;DHT22;46702;48.370;10.794;2023-04-01T22:39:57;6.90;99.90
60868;DHT22;46702;48.370;10.794;2023-04-01T22:43:09;6.80;99.90
60868;DHT22;46702;48.370;10.794;2023-04-01T22:48:02;6.80;99.90
60868;DHT22;46702;48.370;10.794;2023-04-01T22:50:59;6.80;99.90
60868;DHT22;46702;48.370;10.794;2023-04-01T22:53:48;6.80;99.90
60868;DHT22;46702;48.370;10.794;2023-04-01T22:56:49;6.70;99.90
60868;DHT22;46702;48.370;10.794;2023-04-01T22:59:22;6.70;99.90
60868;DHT22;46702;48.370;10.794;2023-04-01T23:02:25;6.70;99.90
60868;DHT22;46702;48.370;10.794;2023-04-01T23:04:57;6.80;99.90
60868;DHT22;46702;48.370;10.794;2023-04-01T23:07:41;6.80;99.90
60868;DHT22;46702;48.370;10.794;2023-04-01T23:10:27;6.80;99.90
60868;DHT22;46702;48.370;10.794;2023-04-01T23:12:58;6.90;99.90
60868;DHT22;46702;48.370;10.794;2023-04-01T23:15:27;6.90;99.90
60868;DHT22;46702;48.370;10.794;2023-04-01T23:20:53;6.90;99.90
60868;DHT22;46702;48.370;10.794;2023-04-01T23:24:11;6.90;99.90
60868;DHT22;46702;48.370;10.794;2023-04-01T23:29:01;7.00;99.90
60868;DHT22;46702;48.370;10.794;2023-04-01T23:36:46;7.00;99.90
60868;DHT22;46702;48.370;10.794;2023-04-01T23:39:32;7.00;99.90
60868;DHT22;46702;48.370;10.794;2023-04-01T23:42:23;7.10;99.90
60868;DHT22;46702;48.370;10.794;2023-04-01T23:45:04;7.10;99.90
60868;DHT22;46702;48.370;10.794;2023-04-01T23:47:37;7.10;99.90
60868;DHT22;46702;48.370;10.794;2023-04-01T23:50:26;7.10;99.90
60868;DHT22;46702;48.370;10.794;2023-04-01T23:53:04;7.10;99.90
60868;DHT22;46702;48.370;10.794;2023-04-01T23:55:35;7.10;99.90
